createdAt,value
2019-03-19T00:00:18.920Z,3.97
2019-03-19T00:02:20.692Z,2.93
2019-03-19T00:04:22.365Z,4.33
2019-03-19T00:06:24.034Z,3.60
2019-03-19T00:08:25.713Z,4.10
2019-03-19T00:10:27.369Z,4.20
2019-03-19T00:12:29.053Z,3.70
2019-03-19T00:14:31.017Z,3.73
2019-03-19T00:16:32.696Z,4.03
2019-03-19T00:18:34.630Z,4.23
2019-03-19T00:20:36.300Z,3.90
2019-03-19T00:22:37.989Z,4.30
2019-03-19T00:24:39.692Z,4.17
2019-03-19T00:26:41.380Z,3.23
2019-03-19T00:28:43.079Z,3.10
2019-03-19T00:30:44.758Z,4.30
2019-03-19T00:32:46.444Z,5.03
2019-03-19T00:34:48.142Z,3.70
2019-03-19T00:36:49.801Z,3.00
2019-03-19T00:38:51.582Z,4.37
2019-03-19T00:40:53.567Z,4.37
2019-03-19T00:42:55.236Z,4.00
2019-03-19T00:44:57.152Z,3.77
2019-03-19T00:46:58.825Z,4.10
2019-03-19T00:49:00.501Z,4.37
2019-03-19T00:51:02.204Z,4.20
2019-03-19T00:53:03.869Z,4.00
2019-03-19T00:55:05.600Z,4.27
2019-03-19T00:57:07.281Z,4.30
2019-03-19T00:59:09.270Z,4.40
2019-03-19T01:01:11.042Z,3.67
2019-03-19T01:03:12.730Z,3.70
2019-03-19T01:05:14.535Z,4.63
2019-03-19T01:07:16.201Z,2.83
2019-03-19T01:09:17.900Z,3.50
2019-03-19T01:11:19.585Z,3.47
2019-03-19T01:13:21.270Z,4.50
2019-03-19T01:15:22.945Z,3.83
2019-03-19T01:17:24.629Z,4.20
2019-03-19T01:19:26.306Z,4.37
2019-03-19T01:21:27.969Z,3.63
2019-03-19T01:23:29.643Z,4.83
2019-03-19T01:25:31.332Z,4.03
2019-03-19T01:27:33.016Z,4.77
2019-03-19T01:29:34.701Z,4.57
2019-03-19T01:31:36.633Z,3.47
2019-03-19T01:33:38.301Z,4.23
2019-03-19T01:35:39.990Z,4.50
2019-03-19T01:37:41.683Z,4.73
2019-03-19T01:39:43.362Z,5.23
2019-03-19T01:41:45.299Z,4.73
2019-03-19T01:43:46.985Z,4.37
2019-03-19T01:45:48.668Z,4.93
2019-03-19T01:47:50.661Z,5.67
2019-03-19T01:49:52.345Z,4.80
2019-03-19T01:51:54.017Z,3.73
2019-03-19T01:53:55.720Z,4.47
2019-03-19T01:56:05.239Z,4.53
2019-03-19T01:58:01.266Z,5.13
2019-03-19T02:00:03.700Z,4.80
2019-03-19T02:02:05.374Z,4.67
2019-03-19T02:04:07.057Z,5.20
2019-03-19T02:06:08.742Z,5.40
2019-03-19T02:08:10.424Z,5.30
2019-03-19T02:10:12.136Z,4.47
2019-03-19T02:12:13.797Z,4.67
2019-03-19T02:14:15.473Z,5.23
2019-03-19T02:16:17.137Z,4.13
2019-03-19T02:18:19.129Z,5.23
2019-03-19T02:20:20.809Z,4.27
2019-03-19T02:22:22.473Z,6.07
2019-03-19T02:24:24.494Z,5.60
2019-03-19T02:26:26.158Z,4.70
2019-03-19T02:28:28.064Z,4.23
2019-03-19T02:30:29.747Z,5.60
2019-03-19T02:32:31.435Z,4.80
2019-03-19T02:34:33.198Z,4.70
2019-03-19T02:36:34.867Z,3.90
2019-03-19T02:38:36.568Z,4.43
2019-03-19T02:40:38.356Z,4.03
2019-03-19T02:42:40.017Z,4.47
2019-03-19T02:44:41.707Z,6.17
2019-03-19T02:46:43.380Z,4.43
2019-03-19T02:48:45.307Z,4.50
2019-03-19T02:50:47.222Z,4.70
2019-03-19T02:52:48.886Z,4.40
2019-03-19T02:54:50.575Z,4.43
2019-03-19T02:56:52.254Z,4.07
2019-03-19T02:58:53.934Z,3.97
2019-03-19T03:00:55.872Z,5.00
2019-03-19T03:02:57.546Z,4.57
2019-03-19T03:04:59.216Z,4.30
2019-03-19T03:07:00.885Z,5.17
2019-03-19T03:09:03.605Z,4.60
2019-03-19T03:11:05.375Z,4.53
2019-03-19T03:13:07.042Z,4.23
2019-03-19T03:15:08.772Z,3.73
2019-03-19T03:17:10.550Z,4.83
2019-03-19T03:19:12.210Z,4.73
2019-03-19T03:21:13.917Z,5.10
2019-03-19T03:23:15.683Z,5.10
2019-03-19T03:25:17.366Z,3.90
2019-03-19T03:27:19.158Z,4.53
2019-03-19T03:29:21.230Z,5.10
2019-03-19T03:31:22.926Z,4.67
2019-03-19T03:33:24.605Z,3.93
2019-03-19T03:35:26.400Z,4.93
2019-03-19T03:37:28.450Z,4.57
2019-03-19T03:39:30.132Z,4.40
2019-03-19T03:41:31.912Z,4.63
2019-03-19T03:43:33.583Z,5.13
2019-03-19T03:45:35.265Z,4.13
2019-03-19T03:47:36.939Z,4.90
2019-03-19T03:49:38.606Z,5.23
2019-03-19T03:51:40.300Z,5.53
2019-03-19T03:53:42.374Z,4.80
2019-03-19T03:55:44.631Z,4.93
2019-03-19T03:57:46.602Z,5.10
2019-03-19T03:59:48.281Z,5.40
2019-03-19T04:01:49.962Z,4.80
2019-03-19T04:03:51.642Z,5.07
2019-03-19T04:05:53.354Z,4.57
2019-03-19T04:07:55.049Z,4.70
2019-03-19T04:09:56.736Z,4.87
2019-03-19T04:11:58.438Z,5.43
2019-03-19T04:14:00.214Z,4.53
2019-03-19T04:16:01.990Z,4.87
2019-03-19T04:18:03.721Z,5.20
2019-03-19T04:20:05.587Z,4.60
2019-03-19T04:22:07.286Z,3.87
2019-03-19T04:24:08.956Z,5.50
2019-03-19T04:26:10.642Z,5.20
2019-03-19T04:28:12.345Z,4.85
2019-03-19T04:30:14.113Z,5.77
2019-03-19T04:32:15.789Z,5.40
2019-03-19T04:34:17.580Z,5.20
2019-03-19T04:36:19.258Z,4.70
2019-03-19T04:38:20.921Z,4.90
2019-03-19T04:40:22.633Z,5.27
2019-03-19T04:42:24.301Z,6.37
2019-03-19T04:44:25.975Z,4.53
2019-03-19T04:46:27.661Z,4.90
2019-03-19T04:48:29.334Z,6.20
2019-03-19T04:50:31.282Z,4.70
2019-03-19T04:52:32.954Z,4.13
2019-03-19T04:54:34.889Z,4.60
2019-03-19T04:56:36.595Z,4.80
2019-03-19T04:58:38.274Z,4.60
2019-03-19T05:00:39.988Z,5.33
2019-03-19T05:02:41.662Z,5.83
2019-03-19T05:04:43.329Z,5.20
2019-03-19T05:06:45.250Z,4.17
2019-03-19T05:08:47.262Z,5.65
2019-03-19T05:10:48.966Z,3.87
2019-03-19T05:12:50.641Z,5.47
2019-03-19T05:14:52.318Z,4.62
2019-03-19T05:16:54.009Z,4.85
2019-03-19T05:18:55.681Z,5.47
2019-03-19T05:20:57.381Z,5.67
2019-03-19T05:22:59.377Z,5.00
2019-03-19T05:25:01.207Z,4.50
2019-03-19T05:27:02.920Z,4.37
2019-03-19T05:29:04.621Z,4.60
2019-03-19T05:31:06.561Z,4.60
2019-03-19T05:33:08.310Z,5.23
2019-03-19T05:35:10.004Z,5.50
2019-03-19T05:37:11.742Z,5.27
2019-03-19T05:39:13.674Z,4.87
2019-03-19T05:41:16.677Z,5.00
2019-03-19T05:43:18.641Z,4.67
2019-03-19T05:45:20.376Z,5.83
2019-03-19T05:47:22.052Z,5.50
2019-03-19T05:49:23.781Z,5.85
2019-03-19T05:51:25.493Z,5.47
2019-03-19T05:53:27.285Z,6.08
2019-03-19T05:55:29.678Z,4.93
2019-03-19T05:57:31.434Z,6.20
2019-03-19T05:59:33.477Z,6.00
2019-03-19T06:01:35.863Z,4.27
2019-03-19T06:03:37.567Z,5.17
2019-03-19T06:05:39.269Z,5.37
2019-03-19T06:07:40.938Z,5.05
2019-03-19T06:09:42.625Z,5.10
2019-03-19T06:11:44.315Z,4.40
2019-03-19T06:13:46.238Z,5.33
2019-03-19T06:15:47.916Z,5.20
2019-03-19T06:17:49.841Z,4.60
2019-03-19T06:19:51.526Z,6.03
2019-03-19T06:21:53.217Z,4.27
2019-03-19T06:23:54.886Z,4.70
2019-03-19T06:25:56.578Z,4.77
2019-03-19T06:28:00.593Z,5.20
2019-03-19T06:30:01.912Z,5.37
2019-03-19T06:32:03.581Z,5.20
2019-03-19T06:34:05.269Z,5.20
2019-03-19T06:36:06.953Z,4.67
2019-03-19T06:38:08.622Z,5.20
2019-03-19T06:40:11.370Z,4.77
2019-03-19T06:42:13.038Z,5.93
2019-03-19T06:44:14.724Z,5.50
2019-03-19T06:46:16.410Z,5.00
2019-03-19T06:48:18.430Z,4.57
2019-03-19T06:50:20.133Z,4.67
2019-03-19T06:52:21.809Z,4.90
2019-03-19T06:54:23.485Z,5.13
2019-03-19T06:56:25.159Z,4.80
2019-03-19T06:58:26.846Z,4.70
2019-03-19T07:00:28.522Z,5.73
2019-03-19T07:02:30.185Z,5.90
2019-03-19T07:04:32.125Z,6.10
2019-03-19T07:06:33.819Z,5.40
2019-03-19T07:08:35.753Z,4.53
2019-03-19T07:10:37.750Z,4.50
2019-03-19T07:12:39.436Z,4.47
2019-03-19T07:14:41.339Z,4.77
2019-03-19T07:16:43.013Z,5.30
2019-03-19T07:18:44.693Z,4.50
2019-03-19T07:20:46.400Z,5.23
2019-03-19T07:22:48.070Z,4.60
2019-03-19T07:24:50.029Z,5.30
2019-03-19T07:26:51.705Z,3.87
2019-03-19T07:28:53.392Z,3.80
2019-03-19T07:30:55.093Z,5.43
2019-03-19T07:32:57.041Z,5.20
2019-03-19T07:34:58.730Z,5.23
2019-03-19T07:37:00.424Z,4.33
2019-03-19T07:39:02.626Z,5.83
2019-03-19T07:41:04.306Z,4.00
2019-03-19T07:43:05.978Z,4.07
2019-03-19T07:45:10.155Z,5.63
2019-03-19T07:47:11.865Z,4.07
2019-03-19T07:49:13.544Z,5.27
2019-03-19T07:51:15.228Z,6.33
2019-03-19T07:53:16.897Z,4.87
2019-03-19T07:55:18.912Z,4.87
2019-03-19T07:57:20.597Z,4.60
2019-03-19T07:59:22.499Z,5.07
2019-03-19T08:01:24.783Z,4.73
2019-03-19T08:03:26.657Z,5.13
2019-03-19T08:05:33.004Z,4.73
2019-03-19T08:07:31.921Z,4.80
2019-03-19T08:09:33.670Z,4.40
2019-03-19T08:11:35.624Z,4.60
2019-03-19T08:13:37.377Z,6.53
2019-03-19T08:15:39.069Z,5.17
2019-03-19T08:17:42.925Z,4.80
2019-03-19T08:19:44.613Z,4.57
2019-03-19T08:21:46.301Z,4.50
2019-03-19T08:23:48.096Z,4.63
2019-03-19T08:25:50.104Z,4.73
2019-03-19T08:27:51.794Z,4.17
2019-03-19T08:29:53.482Z,5.13
2019-03-19T08:31:55.176Z,4.50
2019-03-19T08:33:56.861Z,4.00
2019-03-19T08:36:08.780Z,4.30
2019-03-19T08:38:02.391Z,4.47
2019-03-19T08:40:04.681Z,4.40
2019-03-19T08:42:06.473Z,4.00
2019-03-19T08:44:08.138Z,4.33
2019-03-19T08:46:09.805Z,4.13
2019-03-19T08:48:11.485Z,4.13
2019-03-19T08:50:14.289Z,4.73
2019-03-19T08:52:15.961Z,4.33
2019-03-19T08:54:17.639Z,5.10
2019-03-19T08:56:19.298Z,4.93
2019-03-19T08:58:20.973Z,4.07
2019-03-19T09:00:22.759Z,4.30
2019-03-19T09:02:24.430Z,3.60
2019-03-19T09:04:26.094Z,3.67
2019-03-19T09:06:27.767Z,4.77
2019-03-19T09:08:29.437Z,6.00
2019-03-19T09:10:31.102Z,3.67
2019-03-19T09:12:32.800Z,5.10
2019-03-19T09:14:34.463Z,4.53
2019-03-19T09:16:36.129Z,4.30
2019-03-19T09:18:37.832Z,3.63
2019-03-19T09:20:39.497Z,4.40
2019-03-19T09:22:41.184Z,4.40
2019-03-19T09:24:43.134Z,4.47
2019-03-19T09:26:44.806Z,5.73
2019-03-19T09:28:46.482Z,3.83
2019-03-19T09:30:48.148Z,4.60
2019-03-19T09:32:49.837Z,3.73
2019-03-19T09:34:51.516Z,3.90
2019-03-19T09:36:57.323Z,3.60
2019-03-19T09:38:56.765Z,3.50
2019-03-19T09:40:58.429Z,3.27
2019-03-19T09:43:00.472Z,3.03
2019-03-19T09:45:02.151Z,3.63
2019-03-19T09:47:03.828Z,3.57
2019-03-19T09:49:05.804Z,3.93
2019-03-19T09:51:07.473Z,4.30
2019-03-19T09:53:09.168Z,3.93
2019-03-19T09:55:10.870Z,3.23
2019-03-19T09:57:13.726Z,4.60
2019-03-19T09:59:15.644Z,4.00
2019-03-19T10:01:17.305Z,4.40
2019-03-19T10:03:18.987Z,4.90
2019-03-19T10:05:20.649Z,4.30
2019-03-19T10:07:22.313Z,3.60
2019-03-19T10:09:23.994Z,3.80
2019-03-19T10:11:25.662Z,3.27
2019-03-19T10:13:27.341Z,4.27
2019-03-19T10:15:29.013Z,3.23
2019-03-19T10:17:31.001Z,3.07
2019-03-19T10:19:32.677Z,3.30
2019-03-19T10:21:34.346Z,3.03
2019-03-19T10:23:36.026Z,2.70
2019-03-19T10:25:38.182Z,3.30
2019-03-19T10:27:40.237Z,3.50
2019-03-19T10:29:41.909Z,3.70
2019-03-19T10:31:43.597Z,3.30
2019-03-19T10:33:45.271Z,3.10
2019-03-19T10:35:46.934Z,3.83
2019-03-19T10:37:48.617Z,3.20
2019-03-19T10:39:50.309Z,3.00
2019-03-19T10:41:51.985Z,2.97
2019-03-19T10:43:53.680Z,2.67
2019-03-19T10:45:55.341Z,3.20
2019-03-19T10:47:57.013Z,3.10
2019-03-19T10:49:58.689Z,2.70
2019-03-19T10:52:00.361Z,2.57
2019-03-19T10:54:02.369Z,3.23
2019-03-19T10:56:04.038Z,3.30
2019-03-19T10:58:10.972Z,2.23
2019-03-19T11:00:17.399Z,3.23
2019-03-19T11:02:19.081Z,3.10
2019-03-19T11:04:20.762Z,3.97
2019-03-19T11:06:22.429Z,2.80
2019-03-19T11:08:24.113Z,2.97
2019-03-19T11:10:25.789Z,2.37
2019-03-19T11:12:27.453Z,3.10
2019-03-19T11:14:29.126Z,3.20
2019-03-19T11:16:30.801Z,2.80
2019-03-19T11:18:32.482Z,2.60
2019-03-19T11:20:34.166Z,2.13
2019-03-19T11:22:35.829Z,2.90
2019-03-19T11:24:37.555Z,3.13
2019-03-19T11:26:39.229Z,2.50
2019-03-19T11:28:40.897Z,2.43
2019-03-19T11:30:42.582Z,2.67
2019-03-19T11:32:44.265Z,2.73
2019-03-19T11:34:46.361Z,3.20
2019-03-19T11:36:57.434Z,2.70
2019-03-19T11:38:51.630Z,2.43
2019-03-19T11:40:53.297Z,2.43
2019-03-19T11:42:54.968Z,2.77
2019-03-19T11:44:56.727Z,2.50
2019-03-19T11:46:58.500Z,2.57
2019-03-19T11:49:00.165Z,2.47
2019-03-19T11:51:01.845Z,2.87
2019-03-19T11:53:04.109Z,2.67
2019-03-19T11:55:06.239Z,3.17
2019-03-19T11:57:07.906Z,2.67
2019-03-19T11:59:09.685Z,2.77
2019-03-19T12:01:11.357Z,2.60
2019-03-19T12:03:16.470Z,2.43
2019-03-19T12:05:16.984Z,3.30
2019-03-19T12:07:18.666Z,2.97
2019-03-19T12:09:20.329Z,3.10
2019-03-19T12:11:22.006Z,2.70
2019-03-19T12:13:24.397Z,3.27
2019-03-19T12:15:26.057Z,2.63
2019-03-19T12:17:28.005Z,3.33
2019-03-19T12:19:29.686Z,3.07
2019-03-19T12:21:31.365Z,2.57
2019-03-19T12:23:33.269Z,2.80
2019-03-19T12:25:34.973Z,2.70
2019-03-19T12:27:36.633Z,3.20
2019-03-19T12:29:38.321Z,2.67
2019-03-19T12:31:40.017Z,2.40
2019-03-19T12:33:41.736Z,2.77
2019-03-19T12:35:43.474Z,2.83
2019-03-19T12:37:45.158Z,2.80
2019-03-19T12:39:46.817Z,2.90
2019-03-19T12:41:48.677Z,3.17
2019-03-19T12:43:50.576Z,3.37
2019-03-19T12:45:52.566Z,2.50
2019-03-19T12:47:54.247Z,2.53
2019-03-19T12:49:56.214Z,2.20
2019-03-19T12:51:57.890Z,2.80
2019-03-19T12:53:59.550Z,2.20
2019-03-19T12:56:01.209Z,2.63
2019-03-19T12:58:02.930Z,3.13
2019-03-19T13:00:08.364Z,2.87
2019-03-19T13:02:10.060Z,2.27
2019-03-19T13:04:11.730Z,3.43
2019-03-19T13:06:13.394Z,2.90
2019-03-19T13:08:15.057Z,3.27
2019-03-19T13:10:16.809Z,2.60
2019-03-19T13:12:18.503Z,2.80
2019-03-19T13:14:20.164Z,2.30
2019-03-19T13:16:21.825Z,2.90
2019-03-19T13:18:23.517Z,2.63
2019-03-19T13:20:25.173Z,2.43
2019-03-19T13:22:27.134Z,2.60
2019-03-19T13:24:28.776Z,2.77
2019-03-19T13:26:30.451Z,2.77
2019-03-19T13:28:33.011Z,3.20
2019-03-19T13:30:44.573Z,2.70
2019-03-19T13:32:38.378Z,2.47
2019-03-19T13:34:40.278Z,2.50
2019-03-19T13:36:41.949Z,2.37
2019-03-19T13:38:43.906Z,2.70
2019-03-19T13:40:45.585Z,2.30
2019-03-19T13:42:47.249Z,2.60
2019-03-19T13:44:48.918Z,2.40
2019-03-19T13:46:50.578Z,2.20
2019-03-19T13:48:52.245Z,2.33
2019-03-19T13:50:53.922Z,2.83
2019-03-19T13:52:55.589Z,3.10
2019-03-19T13:54:57.258Z,3.37
2019-03-19T13:56:58.942Z,2.43
2019-03-19T13:59:00.610Z,2.37
2019-03-19T14:01:02.285Z,3.20
2019-03-19T14:03:04.190Z,2.73
2019-03-19T14:05:06.614Z,2.60
2019-03-19T14:07:08.677Z,2.83
2019-03-19T14:09:10.339Z,2.43
2019-03-19T14:11:12.013Z,2.50
2019-03-19T14:13:13.692Z,2.57
2019-03-19T14:15:15.374Z,2.20
2019-03-19T14:17:17.073Z,1.97
2019-03-19T14:19:18.878Z,2.40
2019-03-19T14:21:20.560Z,2.60
2019-03-19T14:23:22.348Z,2.47
2019-03-19T14:25:24.018Z,3.20
2019-03-19T14:27:25.691Z,2.57
2019-03-19T14:29:27.370Z,2.87
2019-03-19T14:31:29.050Z,2.43
2019-03-19T14:33:30.927Z,2.40
2019-03-19T14:35:37.284Z,3.10
2019-03-19T14:37:36.381Z,3.03
2019-03-19T14:39:38.361Z,3.37
2019-03-19T14:41:40.043Z,3.17
2019-03-19T14:43:41.708Z,2.50
2019-03-19T14:45:43.390Z,2.80
2019-03-19T14:47:45.076Z,2.67
2019-03-19T14:49:49.747Z,2.80
2019-03-19T14:51:50.405Z,2.83
2019-03-19T14:53:52.070Z,2.57
2019-03-19T14:55:54.647Z,3.10
2019-03-19T14:57:56.569Z,3.23
2019-03-19T14:59:58.492Z,2.70
2019-03-19T15:02:00.165Z,2.30
2019-03-19T15:04:01.885Z,2.83
2019-03-19T15:06:03.621Z,2.70
2019-03-19T15:08:05.460Z,2.30
2019-03-19T15:10:09.731Z,2.30
2019-03-19T15:12:11.468Z,2.43
2019-03-19T15:14:13.134Z,2.23
2019-03-19T15:16:14.912Z,2.67
2019-03-19T15:18:16.704Z,2.73
2019-03-19T15:20:18.389Z,3.10
2019-03-19T15:22:20.062Z,2.87
2019-03-19T15:24:22.249Z,2.73
2019-03-19T15:26:23.953Z,3.33
2019-03-19T15:28:25.934Z,3.13
2019-03-19T15:30:27.878Z,2.27
2019-03-19T15:32:29.545Z,3.00
2019-03-19T15:34:31.218Z,2.60
2019-03-19T15:36:33.184Z,3.20
2019-03-19T15:38:35.185Z,2.47
2019-03-19T15:40:36.847Z,3.33
2019-03-19T15:42:38.536Z,2.10
2019-03-19T15:44:40.205Z,3.10
2019-03-19T15:46:41.932Z,3.00
2019-03-19T15:48:43.612Z,2.20
2019-03-19T15:50:45.278Z,2.67
2019-03-19T15:52:46.960Z,2.40
2019-03-19T15:54:48.626Z,2.67
2019-03-19T15:56:50.632Z,2.17
2019-03-19T15:58:52.298Z,2.50
2019-03-19T16:00:53.967Z,2.60
2019-03-19T16:02:56.419Z,2.27
2019-03-19T16:04:58.389Z,2.60
2019-03-19T16:07:00.322Z,2.43
2019-03-19T16:09:03.366Z,2.77
2019-03-19T16:11:05.199Z,2.43
2019-03-19T16:13:06.877Z,2.90
2019-03-19T16:15:09.724Z,2.60
2019-03-19T16:17:11.424Z,2.30
2019-03-19T16:19:13.100Z,2.60
2019-03-19T16:21:14.766Z,2.50
2019-03-19T16:23:16.746Z,2.80
2019-03-19T16:25:18.409Z,2.90
2019-03-19T16:27:20.081Z,2.70
2019-03-19T16:29:21.747Z,2.67
2019-03-19T16:31:23.420Z,2.60
2019-03-19T16:33:25.098Z,2.63
2019-03-19T16:35:26.762Z,2.10
2019-03-19T16:37:28.459Z,3.07
2019-03-19T16:39:30.122Z,2.30
2019-03-19T16:44:50.596Z,2.43
2019-03-19T16:46:55.953Z,2.90
2019-03-19T16:48:57.653Z,2.23
2019-03-19T16:50:59.317Z,2.90
2019-03-19T16:53:00.998Z,2.60
2019-03-19T16:55:02.676Z,2.47
2019-03-19T16:57:04.683Z,3.03
2019-03-19T16:59:06.377Z,2.77
2019-03-19T17:01:08.037Z,2.30
2019-03-19T17:03:09.722Z,2.90
2019-03-19T17:05:11.740Z,3.00
2019-03-19T17:07:13.406Z,3.00
2019-03-19T17:09:15.082Z,2.80
2019-03-19T17:11:16.754Z,2.80
2019-03-19T17:13:18.426Z,2.57
2019-03-19T17:15:20.115Z,2.80
2019-03-19T17:17:21.773Z,2.50
2019-03-19T17:19:23.786Z,2.50
2019-03-19T17:21:25.505Z,2.60
2019-03-19T17:23:27.233Z,2.00
2019-03-19T17:25:28.917Z,2.33
2019-03-19T17:27:30.605Z,2.60
2019-03-19T17:29:32.293Z,2.00
2019-03-19T17:31:33.972Z,2.90
2019-03-19T17:33:36.257Z,2.00
2019-03-19T17:35:37.930Z,2.93
2019-03-19T17:37:39.634Z,2.50
2019-03-19T17:39:41.321Z,2.20
2019-03-19T17:41:42.986Z,2.33
2019-03-19T17:43:44.664Z,2.60
2019-03-19T17:45:46.681Z,2.67
2019-03-19T17:47:48.354Z,2.93
2019-03-19T17:49:50.025Z,2.50
2019-03-19T17:51:51.725Z,3.07
2019-03-19T17:53:53.405Z,2.47
2019-03-19T17:55:55.090Z,2.87
2019-03-19T17:57:56.860Z,2.60
2019-03-19T17:59:58.553Z,2.33
2019-03-19T18:02:00.222Z,2.87
2019-03-19T18:04:01.902Z,2.30
2019-03-19T18:06:03.580Z,2.43
2019-03-19T18:08:05.577Z,2.47
2019-03-19T18:10:07.273Z,2.67
2019-03-19T18:12:08.940Z,2.43
2019-03-19T18:14:10.631Z,2.20
2019-03-19T18:16:12.308Z,2.77
2019-03-19T18:18:14.002Z,2.50
2019-03-19T18:20:15.681Z,3.10
2019-03-19T18:22:17.345Z,2.73
2019-03-19T18:24:19.021Z,2.87
2019-03-19T18:26:20.717Z,2.77
2019-03-19T18:28:22.501Z,2.70
2019-03-19T18:30:24.553Z,2.90
2019-03-19T18:32:34.713Z,3.13
2019-03-19T18:34:29.825Z,2.77
2019-03-19T18:36:31.882Z,2.70
2019-03-19T18:38:33.817Z,2.93
2019-03-19T18:40:35.494Z,2.60
2019-03-19T18:42:37.157Z,3.20
2019-03-19T18:44:39.185Z,3.07
2019-03-19T18:46:40.862Z,3.50
2019-03-19T18:48:42.566Z,3.47
2019-03-19T18:50:44.265Z,2.40
2019-03-19T18:52:46.177Z,2.87
2019-03-19T18:54:47.872Z,2.60
2019-03-19T18:56:50.259Z,3.40
2019-03-19T18:58:52.286Z,2.87
2019-03-19T19:00:54.294Z,2.57
2019-03-19T19:02:56.304Z,3.80
2019-03-19T19:04:58.010Z,3.17
2019-03-19T19:06:59.693Z,2.73
2019-03-19T19:09:01.378Z,3.00
2019-03-19T19:11:03.054Z,3.00
2019-03-19T19:13:04.724Z,3.47
2019-03-19T19:15:08.349Z,3.20
2019-03-19T19:17:10.098Z,2.80
2019-03-19T19:19:12.026Z,3.53
2019-03-19T19:21:13.701Z,3.00
2019-03-19T19:23:15.625Z,3.50
2019-03-19T19:25:17.330Z,3.10
2019-03-19T19:27:19.001Z,3.40
2019-03-19T19:29:20.712Z,3.70
2019-03-19T19:31:22.405Z,3.80
2019-03-19T19:33:24.098Z,3.67
2019-03-19T19:35:25.805Z,3.80
2019-03-19T19:37:27.476Z,3.60
2019-03-19T19:39:29.162Z,3.40
2019-03-19T19:41:30.839Z,3.73
2019-03-19T19:43:32.517Z,2.67
2019-03-19T19:45:34.309Z,3.57
2019-03-19T19:47:35.979Z,3.70
2019-03-19T19:49:37.670Z,3.77
2019-03-19T19:51:39.346Z,4.93
2019-03-19T19:53:41.052Z,3.93
2019-03-19T19:55:42.890Z,3.77
2019-03-19T19:57:44.637Z,3.53
2019-03-19T19:59:46.318Z,4.50
2019-03-19T20:01:48.002Z,3.80
2019-03-19T20:03:50.000Z,3.77
2019-03-19T20:05:52.009Z,4.57
2019-03-19T20:07:53.973Z,4.00
2019-03-19T20:09:55.761Z,3.93
2019-03-19T20:11:57.514Z,3.93
2019-03-19T20:13:59.439Z,4.40
2019-03-19T20:16:01.122Z,4.30
2019-03-19T20:18:02.897Z,3.43
2019-03-19T20:20:05.757Z,3.50
2019-03-19T20:22:07.683Z,3.77
2019-03-19T20:24:09.646Z,3.90
2019-03-19T20:26:11.318Z,3.60
2019-03-19T20:28:12.979Z,3.33
2019-03-19T20:30:16.067Z,3.83
2019-03-19T20:32:17.749Z,3.77
2019-03-19T20:34:19.406Z,3.80
2019-03-19T20:36:21.102Z,3.17
2019-03-19T20:38:23.055Z,2.93
2019-03-19T20:40:24.738Z,4.30
2019-03-19T20:42:26.406Z,4.70
2019-03-19T20:44:28.090Z,3.20
2019-03-19T20:46:29.777Z,3.87
2019-03-19T20:48:31.453Z,3.80
2019-03-19T20:50:33.468Z,3.53
2019-03-19T20:52:35.141Z,3.93
2019-03-19T20:54:36.818Z,4.00
2019-03-19T20:56:38.521Z,3.47
2019-03-19T20:58:43.629Z,3.50
2019-03-19T21:00:43.793Z,3.13
2019-03-19T21:02:45.460Z,3.60
2019-03-19T21:04:47.134Z,3.23
2019-03-19T21:06:48.822Z,3.60
2019-03-19T21:08:50.802Z,3.33
2019-03-19T21:10:53.280Z,3.00
2019-03-19T21:12:54.953Z,2.97
2019-03-19T21:14:56.789Z,3.17
2019-03-19T21:16:58.561Z,4.10
2019-03-19T21:19:00.523Z,3.63
2019-03-19T21:21:02.217Z,3.43
2019-03-19T21:23:03.893Z,4.30
2019-03-19T21:25:05.599Z,3.80
2019-03-19T21:27:07.600Z,4.50
2019-03-19T21:29:09.369Z,4.00
2019-03-19T21:31:11.049Z,5.10
2019-03-19T21:33:12.737Z,3.67
2019-03-19T21:35:15.679Z,3.47
2019-03-19T21:37:17.354Z,3.70
2019-03-19T21:39:19.034Z,3.67
2019-03-19T21:41:20.727Z,4.40
2019-03-19T21:43:22.397Z,3.40
2019-03-19T21:45:24.088Z,4.03
2019-03-19T21:47:25.750Z,3.17
2019-03-19T21:49:27.416Z,3.57
2019-03-19T21:51:29.101Z,4.00
2019-03-19T21:53:30.777Z,3.87
2019-03-19T21:55:32.470Z,3.00
2019-03-19T21:57:34.418Z,3.50
2019-03-19T21:59:36.088Z,4.00
2019-03-19T22:01:37.771Z,3.60
2019-03-19T22:03:39.437Z,3.80
2019-03-19T22:05:41.122Z,4.07
2019-03-19T22:07:42.798Z,4.90
2019-03-19T22:09:44.481Z,4.50
2019-03-19T22:11:46.165Z,4.17
2019-03-19T22:13:47.846Z,3.93
2019-03-19T22:15:49.525Z,3.40
2019-03-19T22:17:51.225Z,3.07
2019-03-19T22:19:52.898Z,3.50
2019-03-19T22:21:54.578Z,3.63
2019-03-19T22:23:56.249Z,3.17
2019-03-19T22:25:57.950Z,3.10
2019-03-19T22:27:59.645Z,3.17
2019-03-19T22:30:01.310Z,3.67
2019-03-19T22:32:03.034Z,3.03
2019-03-19T22:34:13.787Z,3.37
2019-03-19T22:36:08.561Z,2.70
2019-03-19T22:38:10.257Z,4.50
2019-03-19T22:40:12.901Z,3.60
2019-03-19T22:42:14.579Z,2.90
2019-03-19T22:44:16.261Z,3.10
2019-03-19T22:46:22.078Z,3.10
2019-03-19T22:48:21.828Z,2.60
2019-03-19T22:50:23.531Z,3.30
2019-03-19T22:52:25.301Z,2.90
2019-03-19T22:54:27.001Z,2.63
2019-03-19T22:56:28.713Z,3.07
2019-03-19T22:58:30.385Z,3.13
2019-03-19T23:00:48.681Z,4.00
2019-03-19T23:02:50.629Z,3.60
2019-03-19T23:04:52.559Z,3.53
2019-03-19T23:06:54.224Z,3.00
2019-03-19T23:08:55.922Z,3.33
2019-03-19T23:10:57.597Z,3.30
2019-03-19T23:12:59.281Z,4.30
2019-03-19T23:15:00.949Z,3.20
2019-03-19T23:17:03.186Z,3.13
2019-03-19T23:19:04.894Z,3.33
2019-03-19T23:21:06.569Z,3.10
2019-03-19T23:23:08.251Z,2.70
2019-03-19T23:25:09.937Z,3.50
2019-03-19T23:27:11.618Z,3.33
2019-03-19T23:29:13.276Z,4.27
2019-03-19T23:31:14.978Z,2.93
2019-03-19T23:33:16.653Z,2.90
2019-03-19T23:35:18.349Z,3.50
2019-03-19T23:37:20.029Z,3.30
2019-03-19T23:39:21.725Z,3.20
2019-03-19T23:41:23.419Z,3.70
2019-03-19T23:43:25.198Z,3.50
2019-03-19T23:45:27.154Z,3.13
2019-03-19T23:47:28.834Z,3.10
2019-03-19T23:49:30.529Z,3.50
2019-03-19T23:51:32.201Z,3.50
2019-03-19T23:53:33.886Z,3.70
2019-03-19T23:55:35.593Z,3.70
2019-03-19T23:57:37.269Z,3.43
2019-03-19T23:59:39.228Z,4.03
